Svitlovods'K, Ukraine
Current Conditions -  °F | °C
As of 7:30 AM on Sunday 21 Dec 2014 (Local Time) from UKDR Reporting Station
Clear Clear  
Wind Chill: 23°   Ceiling: Unl
Heat Index: 28°   Visibility: 6mi
Dew Point: 27°   Wind: 4mph
Humidity: 93%   Direction: 180°S
Pressure: 29.88"   Gusts: NA
Location:  49.05°N, 33.25°E
Report Text: UKDR 210430Z 18002MPS CAVOK M02/M03 Q1012 1819//60 TEMPO 0400 FZFG OVC002
Loading
Personal Weather Stations






























Interactive Weather Map New forecast layout! Learn more

10-Day Weather Forecast

Advertisements
Track Severe Weather on mobile